sensor_id;sensor_type;location;lat;lon;timestamp;pressure;altitude;pressure_sealevel;temperature;humidity
40384;BME280;26097;42.366;23.818;2023-04-21T00:00:19;93641.50;;;7.21;100.00
40384;BME280;26097;42.366;23.818;2023-04-21T00:03:19;93649.00;;;7.13;100.00
40384;BME280;26097;42.366;23.818;2023-04-21T00:06:21;93643.50;;;7.05;100.00
40384;BME280;26097;42.366;23.818;2023-04-21T00:09:22;93638.03;;;6.96;100.00
40384;BME280;26097;42.366;23.818;2023-04-21T00:12:22;93639.41;;;6.89;100.00
40384;BME280;26097;42.366;23.818;2023-04-21T00:15:23;93640.75;;;6.82;100.00
40384;BME280;26097;42.366;23.818;2023-04-21T00:18:23;93640.16;;;6.78;100.00
40384;BME280;26097;42.366;23.818;2023-04-21T00:21:24;93634.97;;;6.78;100.00
40384;BME280;26097;42.366;23.818;2023-04-21T00:24:25;93629.88;;;6.77;100.00
40384;BME280;26097;42.366;23.818;2023-04-21T00:27:25;93629.72;;;7.17;100.00
40384;BME280;26097;42.366;23.818;2023-04-21T00:30:25;93626.53;;;7.38;100.00
40384;BME280;26097;42.366;23.818;2023-04-21T00:33:26;93631.94;;;7.35;100.00
40384;BME280;26097;42.366;23.818;2023-04-21T00:36:26;93630.69;;;7.40;100.00
40384;BME280;26097;42.366;23.818;2023-04-21T00:39:27;93625.16;;;7.45;100.00
40384;BME280;26097;42.366;23.818;2023-04-21T00:42:27;93625.47;;;7.53;100.00
40384;BME280;26097;42.366;23.818;2023-04-21T00:45:28;93621.25;;;7.64;100.00
40384;BME280;26097;42.366;23.818;2023-04-21T00:48:28;93616.34;;;7.72;100.00
40384;BME280;26097;42.366;23.818;2023-04-21T00:51:29;93633.34;;;7.76;100.00
40384;BME280;26097;42.366;23.818;2023-04-21T00:54:34;93622.41;;;7.84;100.00
40384;BME280;26097;42.366;23.818;2023-04-21T00:57:35;93629.66;;;8.03;100.00
40384;BME280;26097;42.366;23.818;2023-04-21T01:00:37;93625.16;;;8.18;100.00
40384;BME280;26097;42.366;23.818;2023-04-21T01:03:38;93618.22;;;8.30;100.00
40384;BME280;26097;42.366;23.818;2023-04-21T01:06:40;93620.56;;;8.44;100.00
40384;BME280;26097;42.366;23.818;2023-04-21T01:09:41;93620.38;;;8.48;100.00
40384;BME280;26097;42.366;23.818;2023-04-21T01:12:43;93617.34;;;8.54;100.00
40384;BME280;26097;42.366;23.818;2023-04-21T01:15:44;93617.81;;;8.59;100.00
40384;BME280;26097;42.366;23.818;2023-04-21T01:18:44;93619.69;;;8.57;100.00
40384;BME280;26097;42.366;23.818;2023-04-21T01:21:45;93617.09;;;8.57;100.00
40384;BME280;26097;42.366;23.818;2023-04-21T01:24:47;93613.19;;;8.51;100.00
40384;BME280;26097;42.366;23.818;2023-04-21T01:27:47;93609.97;;;8.48;100.00
40384;BME280;26097;42.366;23.818;2023-04-21T01:30:48;93613.25;;;8.38;100.00
40384;BME280;26097;42.366;23.818;2023-04-21T01:33:49;93620.56;;;8.33;100.00
40384;BME280;26097;42.366;23.818;2023-04-21T01:36:49;93611.94;;;8.21;100.00
40384;BME280;26097;42.366;23.818;2023-04-21T01:39:53;93611.16;;;8.08;100.00
40384;BME280;26097;42.366;23.818;2023-04-21T01:42:53;93615.13;;;7.65;100.00
40384;BME280;26097;42.366;23.818;2023-04-21T01:45:54;93618.00;;;7.49;100.00
40384;BME280;26097;42.366;23.818;2023-04-21T01:48:55;93622.41;;;7.35;100.00
40384;BME280;26097;42.366;23.818;2023-04-21T01:51:55;93615.31;;;7.13;100.00
40384;BME280;26097;42.366;23.818;2023-04-21T01:54:55;93612.44;;;6.92;100.00
40384;BME280;26097;42.366;23.818;2023-04-21T01:57:56;93615.56;;;6.84;100.00
40384;BME280;26097;42.366;23.818;2023-04-21T02:00:58;93620.66;;;6.72;100.00
40384;BME280;26097;42.366;23.818;2023-04-21T02:03:58;93615.69;;;6.43;100.00
40384;BME280;26097;42.366;23.818;2023-04-21T02:06:59;93606.16;;;6.18;100.00
40384;BME280;26097;42.366;23.818;2023-04-21T02:09:59;93610.25;;;5.95;100.00
40384;BME280;26097;42.366;23.818;2023-04-21T02:13:00;93607.91;;;5.77;100.00
40384;BME280;26097;42.366;23.818;2023-04-21T02:16:00;93604.88;;;5.57;100.00
40384;BME280;26097;42.366;23.818;2023-04-21T02:19:01;93603.06;;;5.45;100.00
40384;BME280;26097;42.366;23.818;2023-04-21T02:22:02;93596.75;;;5.49;100.00
40384;BME280;26097;42.366;23.818;2023-04-21T02:25:04;93601.75;;;5.52;100.00
40384;BME280;26097;42.366;23.818;2023-04-21T02:28:04;93604.41;;;5.78;100.00
40384;BME280;26097;42.366;23.818;2023-04-21T02:31:05;93601.56;;;5.96;100.00
40384;BME280;26097;42.366;23.818;2023-04-21T02:34:05;93602.09;;;6.01;100.00
40384;BME280;26097;42.366;23.818;2023-04-21T02:37:06;93597.44;;;6.06;100.00
40384;BME280;26097;42.366;23.818;2023-04-21T02:40:06;93596.38;;;5.96;100.00
40384;BME280;26097;42.366;23.818;2023-04-21T02:43:07;93598.03;;;5.97;100.00
40384;BME280;26097;42.366;23.818;2023-04-21T02:46:08;93598.31;;;5.92;100.00
40384;BME280;26097;42.366;23.818;2023-04-21T02:49:09;93593.78;;;5.96;100.00
40384;BME280;26097;42.366;23.818;2023-04-21T02:52:10;93604.00;;;5.84;100.00
40384;BME280;26097;42.366;23.818;2023-04-21T02:55:10;93601.81;;;5.78;100.00
40384;BME280;26097;42.366;23.818;2023-04-21T02:58:10;93597.81;;;5.87;100.00
40384;BME280;26097;42.366;23.818;2023-04-21T03:01:11;93599.91;;;5.95;100.00
40384;BME280;26097;42.366;23.818;2023-04-21T03:04:11;93600.16;;;6.18;100.00
40384;BME280;26097;42.366;23.818;2023-04-21T03:07:12;93602.44;;;6.09;100.00
40384;BME280;26097;42.366;23.818;2023-04-21T03:10:13;93599.09;;;6.07;100.00
40384;BME280;26097;42.366;23.818;2023-04-21T03:13:13;93616.75;;;6.54;100.00
40384;BME280;26097;42.366;23.818;2023-04-21T03:16:13;93613.09;;;6.82;100.00
40384;BME280;26097;42.366;23.818;2023-04-21T03:19:14;93611.69;;;7.03;100.00
40384;BME280;26097;42.366;23.818;2023-04-21T03:22:15;93613.13;;;7.44;100.00
40384;BME280;26097;42.366;23.818;2023-04-21T03:25:15;93622.19;;;7.38;100.00
40384;BME280;26097;42.366;23.818;2023-04-21T03:28:15;93606.38;;;7.54;100.00
40384;BME280;26097;42.366;23.818;2023-04-21T03:31:16;93620.03;;;7.56;100.00
40384;BME280;26097;42.366;23.818;2023-04-21T03:34:16;93619.00;;;7.59;100.00
40384;BME280;26097;42.366;23.818;2023-04-21T03:37:16;93617.69;;;7.16;100.00
40384;BME280;26097;42.366;23.818;2023-04-21T03:40:17;93622.31;;;6.48;100.00
40384;BME280;26097;42.366;23.818;2023-04-21T03:43:18;93626.88;;;6.31;100.00
40384;BME280;26097;42.366;23.818;2023-04-21T03:46:21;93632.88;;;6.19;100.00
40384;BME280;26097;42.366;23.818;2023-04-21T03:49:22;93644.88;;;6.20;100.00
40384;BME280;26097;42.366;23.818;2023-04-21T03:52:23;93638.28;;;6.41;100.00
40384;BME280;26097;42.366;23.818;2023-04-21T03:55:23;93657.13;;;6.82;100.00
40384;BME280;26097;42.366;23.818;2023-04-21T03:58:23;93649.22;;;7.10;100.00
40384;BME280;26097;42.366;23.818;2023-04-21T04:01:24;93651.47;;;7.27;100.00
40384;BME280;26097;42.366;23.818;2023-04-21T04:04:24;93658.50;;;7.25;100.00
40384;BME280;26097;42.366;23.818;2023-04-21T04:07:25;93664.09;;;7.32;100.00
40384;BME280;26097;42.366;23.818;2023-04-21T04:10:25;93661.41;;;7.34;100.00
40384;BME280;26097;42.366;23.818;2023-04-21T04:13:26;93666.06;;;7.66;100.00
40384;BME280;26097;42.366;23.818;2023-04-21T04:16:27;93665.97;;;7.92;100.00
40384;BME280;26097;42.366;23.818;2023-04-21T04:19:31;93669.59;;;8.13;100.00
40384;BME280;26097;42.366;23.818;2023-04-21T04:22:31;93667.63;;;8.28;100.00
40384;BME280;26097;42.366;23.818;2023-04-21T04:25:32;93672.53;;;8.44;100.00
40384;BME280;26097;42.366;23.818;2023-04-21T04:28:33;93680.16;;;8.59;100.00
40384;BME280;26097;42.366;23.818;2023-04-21T04:31:34;93676.31;;;8.76;100.00
40384;BME280;26097;42.366;23.818;2023-04-21T04:34:34;93687.41;;;8.90;100.00
40384;BME280;26097;42.366;23.818;2023-04-21T04:37:36;93685.66;;;9.02;100.00
40384;BME280;26097;42.366;23.818;2023-04-21T04:40:37;93681.03;;;9.05;100.00
40384;BME280;26097;42.366;23.818;2023-04-21T04:43:37;93687.78;;;9.19;100.00
40384;BME280;26097;42.366;23.818;2023-04-21T04:46:40;93699.84;;;9.20;100.00
40384;BME280;26097;42.366;23.818;2023-04-21T04:49:41;93697.00;;;9.35;100.00
40384;BME280;26097;42.366;23.818;2023-04-21T04:52:42;93692.25;;;9.40;100.00
40384;BME280;26097;42.366;23.818;2023-04-21T04:55:46;93691.66;;;9.48;100.00
40384;BME280;26097;42.366;23.818;2023-04-21T04:58:46;93698.19;;;9.53;100.00
40384;BME280;26097;42.366;23.818;2023-04-21T05:01:47;93686.22;;;9.62;100.00
40384;BME280;26097;42.366;23.818;2023-04-21T05:04:47;93697.69;;;9.71;100.00
40384;BME280;26097;42.366;23.818;2023-04-21T05:07:48;93689.97;;;9.69;100.00
40384;BME280;26097;42.366;23.818;2023-04-21T05:10:48;93686.91;;;9.76;100.00
40384;BME280;26097;42.366;23.818;2023-04-21T05:13:49;93693.16;;;9.84;100.00
40384;BME280;26097;42.366;23.818;2023-04-21T05:16:49;93681.31;;;9.80;100.00
40384;BME280;26097;42.366;23.818;2023-04-21T05:19:50;93676.47;;;9.87;100.00
40384;BME280;26097;42.366;23.818;2023-04-21T05:22:50;93684.28;;;9.87;100.00
40384;BME280;26097;42.366;23.818;2023-04-21T05:25:50;93674.22;;;9.82;100.00
40384;BME280;26097;42.366;23.818;2023-04-21T05:28:51;93681.19;;;9.93;100.00
40384;BME280;26097;42.366;23.818;2023-04-21T05:31:52;93668.38;;;10.02;100.00
40384;BME280;26097;42.366;23.818;2023-04-21T05:34:52;93665.00;;;10.11;100.00
40384;BME280;26097;42.366;23.818;2023-04-21T05:37:52;93673.78;;;10.10;100.00
40384;BME280;26097;42.366;23.818;2023-04-21T05:40:53;93674.34;;;10.25;100.00
40384;BME280;26097;42.366;23.818;2023-04-21T05:43:54;93682.59;;;10.30;100.00
40384;BME280;26097;42.366;23.818;2023-04-21T05:46:55;93683.09;;;10.24;100.00
40384;BME280;26097;42.366;23.818;2023-04-21T05:49:55;93670.44;;;10.19;100.00
40384;BME280;26097;42.366;23.818;2023-04-21T05:52:56;93675.16;;;10.25;100.00
40384;BME280;26097;42.366;23.818;2023-04-21T05:55:56;93682.84;;;10.27;100.00
40384;BME280;26097;42.366;23.818;2023-04-21T05:58:56;93684.56;;;10.38;100.00
40384;BME280;26097;42.366;23.818;2023-04-21T06:01:57;93675.66;;;10.52;100.00
40384;BME280;26097;42.366;23.818;2023-04-21T06:04:57;93686.09;;;10.73;100.00
40384;BME280;26097;42.366;23.818;2023-04-21T06:07:57;93672.00;;;10.85;100.00
40384;BME280;26097;42.366;23.818;2023-04-21T06:10:58;93678.38;;;10.93;100.00
40384;BME280;26097;42.366;23.818;2023-04-21T06:13:58;93675.56;;;11.06;100.00
40384;BME280;26097;42.366;23.818;2023-04-21T06:17:00;93680.88;;;11.25;100.00
40384;BME280;26097;42.366;23.818;2023-04-21T06:20:00;93678.84;;;11.39;100.00
40384;BME280;26097;42.366;23.818;2023-04-21T06:23:01;93684.78;;;11.41;100.00
40384;BME280;26097;42.366;23.818;2023-04-21T06:26:03;93675.09;;;11.63;100.00
40384;BME280;26097;42.366;23.818;2023-04-21T06:29:04;93682.13;;;11.72;100.00
40384;BME280;26097;42.366;23.818;2023-04-21T06:32:05;93675.69;;;11.86;100.00
40384;BME280;26097;42.366;23.818;2023-04-21T06:35:05;93687.59;;;12.10;100.00
40384;BME280;26097;42.366;23.818;2023-04-21T06:38:07;93681.81;;;12.16;100.00
40384;BME280;26097;42.366;23.818;2023-04-21T06:41:08;93697.84;;;11.92;100.00
40384;BME280;26097;42.366;23.818;2023-04-21T06:44:08;93684.84;;;12.41;100.00
40384;BME280;26097;42.366;23.818;2023-04-21T06:47:13;93671.63;;;12.62;100.00
40384;BME280;26097;42.366;23.818;2023-04-21T06:50:15;93674.38;;;12.51;74.43
40384;BME280;26097;42.366;23.818;2023-04-21T06:53:16;93669.72;;;12.25;75.47
40384;BME280;26097;42.366;23.818;2023-04-21T06:56:17;93664.78;;;12.22;74.40
40384;BME280;26097;42.366;23.818;2023-04-21T06:59:18;93663.94;;;12.11;74.20
40384;BME280;26097;42.366;23.818;2023-04-21T07:02:18;93662.00;;;12.43;73.88
40384;BME280;26097;42.366;23.818;2023-04-21T07:05:18;93648.81;;;12.54;74.72
40384;BME280;26097;42.366;23.818;2023-04-21T07:08:19;93658.13;;;12.57;74.97
40384;BME280;26097;42.366;23.818;2023-04-21T07:11:19;93649.22;;;12.50;71.63
40384;BME280;26097;42.366;23.818;2023-04-21T07:14:20;93637.66;;;12.42;73.22
40384;BME280;26097;42.366;23.818;2023-04-21T07:17:20;93651.56;;;12.33;72.05
40384;BME280;26097;42.366;23.818;2023-04-21T07:20:20;93648.66;;;12.46;71.55
40384;BME280;26097;42.366;23.818;2023-04-21T07:23:21;93639.94;;;12.85;71.47
40384;BME280;26097;42.366;23.818;2023-04-21T07:26:21;93643.50;;;12.94;69.55
40384;BME280;26097;42.366;23.818;2023-04-21T07:29:21;93642.94;;;12.90;70.72
40384;BME280;26097;42.366;23.818;2023-04-21T07:32:22;93649.00;;;13.00;68.77
40384;BME280;26097;42.366;23.818;2023-04-21T07:35:23;93649.66;;;13.03;68.03
40384;BME280;26097;42.366;23.818;2023-04-21T07:38:24;93651.16;;;13.05;66.41
40384;BME280;26097;42.366;23.818;2023-04-21T07:41:24;93647.38;;;13.27;66.59
40384;BME280;26097;42.366;23.818;2023-04-21T07:44:24;93645.75;;;13.54;66.14
40384;BME280;26097;42.366;23.818;2023-04-21T07:47:25;93644.66;;;14.03;65.90
40384;BME280;26097;42.366;23.818;2023-04-21T07:50:26;93652.75;;;14.28;64.65
40384;BME280;26097;42.366;23.818;2023-04-21T07:53:26;93657.31;;;14.26;63.01
40384;BME280;26097;42.366;23.818;2023-04-21T07:56:27;93652.88;;;14.08;62.69
40384;BME280;26097;42.366;23.818;2023-04-21T07:59:27;93651.16;;;14.17;62.78
40384;BME280;26097;42.366;23.818;2023-04-21T08:02:27;93656.94;;;14.21;61.95
40384;BME280;26097;42.366;23.818;2023-04-21T08:05:28;93659.47;;;14.12;63.76
40384;BME280;26097;42.366;23.818;2023-04-21T08:08:29;93656.84;;;14.12;63.00
40384;BME280;26097;42.366;23.818;2023-04-21T08:11:29;93660.59;;;14.28;61.12
40384;BME280;26097;42.366;23.818;2023-04-21T08:14:30;93663.44;;;14.53;60.61
40384;BME280;26097;42.366;23.818;2023-04-21T08:17:31;93661.94;;;14.87;61.19
40384;BME280;26097;42.366;23.818;2023-04-21T08:20:31;93661.56;;;14.63;59.45
40384;BME280;26097;42.366;23.818;2023-04-21T08:23:32;93671.91;;;14.47;61.17
40384;BME280;26097;42.366;23.818;2023-04-21T08:26:32;93668.63;;;14.08;59.03
40384;BME280;26097;42.366;23.818;2023-04-21T08:29:33;93660.22;;;14.05;61.42
40384;BME280;26097;42.366;23.818;2023-04-21T08:32:33;93660.44;;;14.11;60.81
40384;BME280;26097;42.366;23.818;2023-04-21T08:35:33;93665.94;;;14.36;60.85
40384;BME280;26097;42.366;23.818;2023-04-21T08:38:35;93650.06;;;15.01;58.89
40384;BME280;26097;42.366;23.818;2023-04-21T08:41:38;93652.03;;;15.33;57.84
40384;BME280;26097;42.366;23.818;2023-04-21T08:44:39;93640.66;;;15.59;56.97
40384;BME280;26097;42.366;23.818;2023-04-21T08:47:41;93651.16;;;16.02;56.18
40384;BME280;26097;42.366;23.818;2023-04-21T08:50:42;93651.81;;;15.53;55.95
40384;BME280;26097;42.366;23.818;2023-04-21T08:53:44;93650.63;;;14.86;57.63
40384;BME280;26097;42.366;23.818;2023-04-21T08:56:46;93645.47;;;14.76;58.36
40384;BME280;26097;42.366;23.818;2023-04-21T08:59:47;93649.69;;;14.95;57.25
40384;BME280;26097;42.366;23.818;2023-04-21T09:03:00;93641.63;;;15.50;56.01
40384;BME280;26097;42.366;23.818;2023-04-21T09:06:04;93628.16;;;16.04;55.69
40384;BME280;26097;42.366;23.818;2023-04-21T09:09:05;93612.44;;;16.54;55.36
40384;BME280;26097;42.366;23.818;2023-04-21T09:12:05;93624.44;;;16.56;53.79
40384;BME280;26097;42.366;23.818;2023-04-21T09:15:09;93624.56;;;16.05;51.79
40384;BME280;26097;42.366;23.818;2023-04-21T09:18:14;93629.66;;;16.07;52.53
40384;BME280;26097;42.366;23.818;2023-04-21T09:21:17;93627.34;;;15.95;52.62
40384;BME280;26097;42.366;23.818;2023-04-21T09:24:18;93627.66;;;15.92;52.12
40384;BME280;26097;42.366;23.818;2023-04-21T09:27:20;93629.19;;;16.11;51.80
40384;BME280;26097;42.366;23.818;2023-04-21T09:30:20;93632.78;;;15.59;52.84
40384;BME280;26097;42.366;23.818;2023-04-21T09:33:21;93623.53;;;15.12;53.26
40384;BME280;26097;42.366;23.818;2023-04-21T09:36:24;93618.16;;;15.22;54.76
40384;BME280;26097;42.366;23.818;2023-04-21T09:39:25;93618.78;;;15.50;52.76
40384;BME280;26097;42.366;23.818;2023-04-21T09:42:30;93612.06;;;16.07;51.95
40384;BME280;26097;42.366;23.818;2023-04-21T09:45:31;93610.47;;;16.73;50.93
40384;BME280;26097;42.366;23.818;2023-04-21T09:48:33;93595.34;;;16.25;50.33
40384;BME280;26097;42.366;23.818;2023-04-21T09:51:34;93599.59;;;16.09;51.86
40384;BME280;26097;42.366;23.818;2023-04-21T09:54:35;93609.69;;;15.79;52.41
40384;BME280;26097;42.366;23.818;2023-04-21T09:57:41;93612.09;;;16.24;52.49
40384;BME280;26097;42.366;23.818;2023-04-21T10:00:44;93598.25;;;17.05;51.16
40384;BME280;26097;42.366;23.818;2023-04-21T10:03:47;93590.50;;;17.60;49.52
40384;BME280;26097;42.366;23.818;2023-04-21T10:06:48;93579.88;;;18.08;47.89
40384;BME280;26097;42.366;23.818;2023-04-21T10:09:55;93588.38;;;17.55;49.22
40384;BME280;26097;42.366;23.818;2023-04-21T10:12:56;93595.38;;;17.39;49.41
40384;BME280;26097;42.366;23.818;2023-04-21T10:16:01;93583.28;;;17.05;49.29
40384;BME280;26097;42.366;23.818;2023-04-21T10:19:25;93591.03;;;16.98;50.68
40384;BME280;26097;42.366;23.818;2023-04-21T10:22:30;93591.41;;;16.70;51.47
40384;BME280;26097;42.366;23.818;2023-04-21T10:25:31;93584.81;;;16.17;51.15
40384;BME280;26097;42.366;23.818;2023-04-21T10:31:51;93587.69;;;15.80;53.97
40384;BME280;26097;42.366;23.818;2023-04-21T10:34:52;93593.22;;;15.69;53.34
40384;BME280;26097;42.366;23.818;2023-04-21T10:37:52;93589.22;;;15.48;53.49
40384;BME280;26097;42.366;23.818;2023-04-21T10:40:53;93597.25;;;15.38;53.18
40384;BME280;26097;42.366;23.818;2023-04-21T10:43:56;93585.22;;;15.27;54.20
40384;BME280;26097;42.366;23.818;2023-04-21T10:46:57;93589.13;;;15.15;53.98
40384;BME280;26097;42.366;23.818;2023-04-21T10:50:10;93590.47;;;15.27;52.80
40384;BME280;26097;42.366;23.818;2023-04-21T10:53:11;93594.06;;;15.26;54.10
40384;BME280;26097;42.366;23.818;2023-04-21T10:56:12;93590.09;;;15.14;55.06
40384;BME280;26097;42.366;23.818;2023-04-21T10:59:14;93592.66;;;15.06;55.12
40384;BME280;26097;42.366;23.818;2023-04-21T11:02:17;93603.78;;;14.99;56.70
40384;BME280;26097;42.366;23.818;2023-04-21T11:05:18;93597.41;;;15.02;56.57
40384;BME280;26097;42.366;23.818;2023-04-21T11:08:18;93600.22;;;15.09;56.75
40384;BME280;26097;42.366;23.818;2023-04-21T11:11:22;93595.16;;;15.07;58.77
40384;BME280;26097;42.366;23.818;2023-04-21T11:14:23;93591.66;;;15.41;57.43
40384;BME280;26097;42.366;23.818;2023-04-21T11:17:24;93592.91;;;15.64;55.90
40384;BME280;26097;42.366;23.818;2023-04-21T11:20:24;93594.31;;;15.93;56.08
40384;BME280;26097;42.366;23.818;2023-04-21T11:23:25;93590.97;;;15.82;53.94
40384;BME280;26097;42.366;23.818;2023-04-21T11:26:33;93586.19;;;15.78;53.39
40384;BME280;26097;42.366;23.818;2023-04-21T11:29:34;93581.47;;;15.90;54.49
40384;BME280;26097;42.366;23.818;2023-04-21T11:32:34;93578.88;;;15.98;55.02
40384;BME280;26097;42.366;23.818;2023-04-21T11:35:39;93567.72;;;16.21;55.58
40384;BME280;26097;42.366;23.818;2023-04-21T11:38:40;93566.56;;;16.07;55.31
40384;BME280;26097;42.366;23.818;2023-04-21T11:41:42;93565.75;;;16.15;55.32
40384;BME280;26097;42.366;23.818;2023-04-21T11:44:43;93560.50;;;16.31;55.43
40384;BME280;26097;42.366;23.818;2023-04-21T11:47:43;93552.28;;;16.51;55.89
40384;BME280;26097;42.366;23.818;2023-04-21T11:50:48;93558.66;;;16.73;55.43
40384;BME280;26097;42.366;23.818;2023-04-21T11:53:48;93560.16;;;16.18;56.24
40384;BME280;26097;42.366;23.818;2023-04-21T11:56:49;93556.06;;;16.32;56.89
40384;BME280;26097;42.366;23.818;2023-04-21T11:59:51;93562.63;;;16.36;56.02
40384;BME280;26097;42.366;23.818;2023-04-21T12:02:55;93561.66;;;16.12;56.39
40384;BME280;26097;42.366;23.818;2023-04-21T12:05:56;93575.16;;;15.66;56.78
40384;BME280;26097;42.366;23.818;2023-04-21T12:09:01;93579.44;;;15.67;58.29
40384;BME280;26097;42.366;23.818;2023-04-21T12:12:03;93584.97;;;15.47;61.71
40384;BME280;26097;42.366;23.818;2023-04-21T12:15:24;93577.09;;;15.47;61.87
40384;BME280;26097;42.366;23.818;2023-04-21T12:18:30;93566.78;;;15.62;59.96
40384;BME280;26097;42.366;23.818;2023-04-21T12:21:31;93571.59;;;15.75;60.92
40384;BME280;26097;42.366;23.818;2023-04-21T12:24:31;93563.09;;;16.48;59.53
40384;BME280;26097;42.366;23.818;2023-04-21T12:27:31;93559.41;;;17.07;56.34
40384;BME280;26097;42.366;23.818;2023-04-21T12:30:32;93563.78;;;17.63;55.39
40384;BME280;26097;42.366;23.818;2023-04-21T12:33:32;93563.22;;;16.79;53.56
40384;BME280;26097;42.366;23.818;2023-04-21T12:36:33;93555.41;;;16.46;53.92
40384;BME280;26097;42.366;23.818;2023-04-21T12:39:33;93552.44;;;16.33;54.48
40384;BME280;26097;42.366;23.818;2023-04-21T12:42:34;93548.56;;;16.93;54.41
40384;BME280;26097;42.366;23.818;2023-04-21T12:45:35;93552.06;;;16.69;55.79
40384;BME280;26097;42.366;23.818;2023-04-21T12:48:35;93569.69;;;16.02;57.23
40384;BME280;26097;42.366;23.818;2023-04-21T12:51:36;93574.19;;;15.67;57.59
40384;BME280;26097;42.366;23.818;2023-04-21T12:54:36;93583.63;;;14.74;60.70
40384;BME280;26097;42.366;23.818;2023-04-21T12:57:37;93591.94;;;13.88;69.67
40384;BME280;26097;42.366;23.818;2023-04-21T13:00:37;93590.34;;;12.93;93.67
40384;BME280;26097;42.366;23.818;2023-04-21T13:03:37;93576.22;;;12.19;100.00
40384;BME280;26097;42.366;23.818;2023-04-21T13:06:38;93579.22;;;11.84;100.00
40384;BME280;26097;42.366;23.818;2023-04-21T13:09:39;93575.25;;;11.80;98.82
40384;BME280;26097;42.366;23.818;2023-04-21T13:12:40;93586.59;;;11.40;100.00
40384;BME280;26097;42.366;23.818;2023-04-21T13:15:41;93570.84;;;11.10;100.00
40384;BME280;26097;42.366;23.818;2023-04-21T13:18:41;93571.66;;;11.11;100.00
40384;BME280;26097;42.366;23.818;2023-04-21T13:21:42;93576.09;;;11.20;100.00
40384;BME280;26097;42.366;23.818;2023-04-21T13:24:42;93566.22;;;11.34;100.00
40384;BME280;26097;42.366;23.818;2023-04-21T13:27:43;93563.22;;;11.38;100.00
40384;BME280;26097;42.366;23.818;2023-04-21T13:30:45;93570.09;;;11.49;100.00
40384;BME280;26097;42.366;23.818;2023-04-21T13:33:45;93581.41;;;11.69;100.00
40384;BME280;26097;42.366;23.818;2023-04-21T13:36:46;93591.28;;;11.56;100.00
40384;BME280;26097;42.366;23.818;2023-04-21T13:39:46;93594.09;;;11.23;100.00
40384;BME280;26097;42.366;23.818;2023-04-21T13:42:47;93605.88;;;10.86;100.00
40384;BME280;26097;42.366;23.818;2023-04-21T13:45:47;93604.06;;;10.56;100.00
40384;BME280;26097;42.366;23.818;2023-04-21T13:48:51;93605.84;;;10.34;100.00
40384;BME280;26097;42.366;23.818;2023-04-21T13:51:51;93598.97;;;10.45;100.00
40384;BME280;26097;42.366;23.818;2023-04-21T13:54:52;93596.19;;;10.67;100.00
40384;BME280;26097;42.366;23.818;2023-04-21T13:57:53;93587.09;;;10.83;100.00
40384;BME280;26097;42.366;23.818;2023-04-21T14:00:53;93592.19;;;10.94;100.00
40384;BME280;26097;42.366;23.818;2023-04-21T14:03:54;93596.63;;;11.04;100.00
40384;BME280;26097;42.366;23.818;2023-04-21T14:06:55;93586.25;;;11.13;100.00
40384;BME280;26097;42.366;23.818;2023-04-21T14:09:56;93592.03;;;11.27;100.00
40384;BME280;26097;42.366;23.818;2023-04-21T14:12:57;93584.22;;;11.37;100.00
40384;BME280;26097;42.366;23.818;2023-04-21T14:15:57;93580.81;;;11.46;100.00
40384;BME280;26097;42.366;23.818;2023-04-21T14:18:58;93580.53;;;11.49;100.00
40384;BME280;26097;42.366;23.818;2023-04-21T14:21:58;93583.06;;;11.61;100.00
40384;BME280;26097;42.366;23.818;2023-04-21T14:24:58;93580.69;;;11.57;100.00
40384;BME280;26097;42.366;23.818;2023-04-21T14:27:59;93579.03;;;11.47;100.00
40384;BME280;26097;42.366;23.818;2023-04-21T14:30:59;93570.66;;;11.43;100.00
40384;BME280;26097;42.366;23.818;2023-04-21T14:34:00;93567.47;;;11.39;100.00
40384;BME280;26097;42.366;23.818;2023-04-21T14:37:01;93564.19;;;11.47;100.00
40384;BME280;26097;42.366;23.818;2023-04-21T14:40:02;93566.53;;;11.50;100.00
40384;BME280;26097;42.366;23.818;2023-04-21T14:43:06;93564.06;;;11.68;100.00
40384;BME280;26097;42.366;23.818;2023-04-21T14:46:06;93561.34;;;11.90;100.00
40384;BME280;26097;42.366;23.818;2023-04-21T14:49:07;93554.75;;;12.25;100.00
40384;BME280;26097;42.366;23.818;2023-04-21T14:52:07;93555.09;;;12.50;100.00
40384;BME280;26097;42.366;23.818;2023-04-21T14:55:08;93554.94;;;12.61;100.00
40384;BME280;26097;42.366;23.818;2023-04-21T14:58:08;93561.34;;;12.77;100.00
40384;BME280;26097;42.366;23.818;2023-04-21T15:01:09;93557.63;;;12.79;100.00
40384;BME280;26097;42.366;23.818;2023-04-21T15:04:09;93556.72;;;13.08;100.00
40384;BME280;26097;42.366;23.818;2023-04-21T15:07:10;93550.53;;;13.27;100.00
40384;BME280;26097;42.366;23.818;2023-04-21T15:10:11;93552.28;;;13.37;100.00
40384;BME280;26097;42.366;23.818;2023-04-21T15:13:11;93558.09;;;13.59;100.00
40384;BME280;26097;42.366;23.818;2023-04-21T15:16:12;93550.19;;;13.87;100.00
40384;BME280;26097;42.366;23.818;2023-04-21T15:19:13;93554.44;;;13.88;100.00
40384;BME280;26097;42.366;23.818;2023-04-21T15:22:13;93546.88;;;13.84;100.00
40384;BME280;26097;42.366;23.818;2023-04-21T15:25:14;93554.69;;;13.76;100.00
40384;BME280;26097;42.366;23.818;2023-04-21T15:28:14;93549.28;;;13.60;100.00
40384;BME280;26097;42.366;23.818;2023-04-21T15:31:15;93548.81;;;13.46;100.00
40384;BME280;26097;42.366;23.818;2023-04-21T15:34:15;93543.88;;;13.43;100.00
40384;BME280;26097;42.366;23.818;2023-04-21T15:37:15;93544.47;;;13.55;100.00
40384;BME280;26097;42.366;23.818;2023-04-21T15:40:16;93539.63;;;13.60;100.00
40384;BME280;26097;42.366;23.818;2023-04-21T15:43:17;93540.22;;;13.72;100.00
40384;BME280;26097;42.366;23.818;2023-04-21T15:46:17;93539.25;;;13.73;100.00